Time;durP1;ratioP1;P1;durP2;ratioP2;P2;SDS_P1;SDS_P2;PMS_P1;PMS_P2;Temp;Humidity;BMP_temperature;BMP_pressure;BME280_temperature;BME280_humidity;BME280_pressure;Samples;Min_cycle;Max_cycle;Signal;HPM_P1;HPM_P2
2022/06/22 00:00:17;;;;;;;5.93;3.10;;;;;;;13.98;95.36;100506.03;701232;28;1909;-79
2022/06/22 00:00:41;;;;;;;6.93;3.28;;;;;;;14.02;95.02;100484.06;697801;28;4405;-79
2022/06/22 00:01:23;;;;;;;6.88;3.28;;;;;;;13.92;96.66;100475.50;695268;28;1799;-79
2022/06/22 00:01:49;;;;;;;5.93;3.72;;;;;;;13.93;95.35;100471.13;695808;28;1310;-79
2022/06/22 00:02:17;;;;;;;4.88;3.13;;;;;;;13.94;95.95;100471.09;695211;28;1199;-79
2022/06/22 00:02:42;;;;;;;6.05;3.20;;;;;;;14.04;93.98;100470.88;695914;28;1074;-79
2022/06/22 00:03:05;;;;;;;6.78;3.60;;;;;;;14.15;93.14;100474.16;695312;28;1275;-79
2022/06/22 00:03:26;;;;;;;6.18;3.50;;;;;;;14.24;92.50;100468.66;694061;28;1366;-78
2022/06/22 00:03:54;;;;;;;5.78;3.08;;;;;;;14.24;93.46;100466.03;695997;28;4285;-79
2022/06/22 00:04:28;;;;;;;5.78;3.10;;;;;;;14.19;93.06;100473.19;697587;28;1630;-79
2022/06/22 00:04:58;;;;;;;4.55;3.00;;;;;;;14.14;95.05;100467.16;697142;28;3813;-78
2022/06/22 00:05:23;;;;;;;5.47;3.05;;;;;;;14.08;96.18;100467.28;695484;28;1333;-79
2022/06/22 00:05:48;;;;;;;6.30;3.10;;;;;;;14.08;95.29;100468.16;692722;28;1124;-79
2022/06/22 00:06:28;;;;;;;5.28;3.10;;;;;;;14.12;94.02;100468.94;700491;28;1243;-78
2022/06/22 00:06:55;;;;;;;4.68;3.03;;;;;;;14.05;94.16;100470.88;696428;28;4361;-79
2022/06/22 00:07:57;;;;;;;5.25;3.30;;;;;;;14.00;94.21;100470.09;699951;28;1539;-79
2022/06/22 00:08:35;;;;;;;4.72;2.95;;;;;;;13.93;94.26;100460.63;692502;28;1237;-79
2022/06/22 00:08:55;;;;;;;6.60;3.20;;;;;;;13.95;93.96;100461.44;692034;28;1661;-79
2022/06/22 00:09:24;;;;;;;6.03;3.20;;;;;;;13.98;94.17;100471.88;693954;28;1730;-78
2022/06/22 00:09:46;;;;;;;4.65;3.22;;;;;;;14.00;95.33;100472.72;689507;28;4268;-79
2022/06/22 00:10:23;;;;;;;4.50;3.13;;;;;;;13.94;97.18;100471.09;699175;28;1648;-79
2022/06/22 00:10:54;;;;;;;5.75;3.33;;;;;;;13.96;95.78;100463.19;697946;28;1449;-79
2022/06/22 00:11:15;;;;;;;7.35;3.20;;;;;;;13.98;95.43;100469.25;692630;28;1748;-79
2022/06/22 00:11:36;;;;;;;7.25;3.00;;;;;;;13.95;97.21;100458.81;693827;28;1182;-79
2022/06/22 00:11:57;;;;;;;5.23;3.10;;;;;;;13.85;97.67;100466.03;691973;28;1445;-79
2022/06/22 00:12:25;;;;;;;6.20;3.25;;;;;;;13.78;97.76;100462.66;692403;28;2366;-79
2022/06/22 00:12:53;;;;;;;5.07;3.30;;;;;;;13.77;97.42;100457.44;690329;28;4322;-79
2022/06/22 00:13:20;;;;;;;6.03;3.38;;;;;;;13.83;96.36;100453.81;688483;28;1822;-79
2022/06/22 00:13:55;;;;;;;5.22;3.00;;;;;;;13.82;95.72;100457.34;693235;28;1571;-79
2022/06/22 00:14:19;;;;;;;5.05;2.97;;;;;;;13.88;94.71;100446.72;694735;28;1840;-78
2022/06/22 00:14:46;;;;;;;4.90;3.00;;;;;;;13.95;94.06;100449.16;692226;28;1902;-79
2022/06/22 00:15:21;;;;;;;5.00;3.17;;;;;;;13.98;94.32;100455.25;697202;28;1633;-79
2022/06/22 00:15:50;;;;;;;6.07;3.30;;;;;;;13.96;95.35;100448.25;693794;28;4243;-79
2022/06/22 00:16:22;;;;;;;4.57;3.00;;;;;;;14.07;94.29;100455.91;691599;28;1693;-79
2022/06/22 00:16:49;;;;;;;6.85;3.33;;;;;;;13.99;94.40;100443.84;695825;28;2543;-79
2022/06/22 00:17:24;;;;;;;5.10;3.05;;;;;;;13.88;95.69;100450.19;698080;28;1350;-78
2022/06/22 00:17:44;;;;;;;5.70;3.28;;;;;;;13.86;94.97;100453.75;698705;28;1087;-79
2022/06/22 00:18:31;;;;;;;5.37;2.73;;;;;;;13.87;94.93;100447.59;700216;28;1697;-79
2022/06/22 00:18:53;;;;;;;4.60;2.80;;;;;;;13.86;94.62;100464.25;697060;28;4251;-79
2022/06/22 00:19:26;;;;;;;4.13;2.70;;;;;;;13.79;95.22;100459.16;696191;28;1197;-79
2022/06/22 00:19:47;;;;;;;4.60;2.90;;;;;;;13.81;95.22;100458.25;697637;28;1016;-79
2022/06/22 00:20:14;;;;;;;5.35;3.00;;;;;;;13.76;95.56;100458.34;698341;28;1961;-79
2022/06/22 00:20:34;;;;;;;5.10;3.35;;;;;;;13.72;95.57;100454.94;698901;28;1568;-79
2022/06/22 00:21:00;;;;;;;5.13;3.10;;;;;;;13.73;95.35;100453.16;700172;28;1291;-79
2022/06/22 00:21:25;;;;;;;6.85;3.40;;;;;;;13.70;96.06;100451.47;697876;28;1583;-79
2022/06/22 00:21:49;;;;;;;5.15;3.10;;;;;;;13.70;95.61;100455.84;698619;28;4318;-79
2022/06/22 00:22:26;;;;;;;5.60;3.25;;;;;;;13.63;96.46;100448.09;698157;28;1802;-79
2022/06/22 00:22:55;;;;;;;5.25;3.10;;;;;;;13.59;96.75;100451.69;695414;28;1305;-79
2022/06/22 00:23:16;;;;;;;4.80;3.00;;;;;;;13.61;95.89;100447.28;695104;28;2215;-79
2022/06/22 00:23:38;;;;;;;5.10;3.10;;;;;;;13.63;95.86;100455.13;694125;28;5056;-79
2022/06/22 00:24:02;;;;;;;6.22;3.20;;;;;;;13.60;96.11;100449.94;695622;28;1536;-79
2022/06/22 00:24:22;;;;;;;5.55;3.15;;;;;;;13.59;95.77;100449.06;692645;28;1710;-79
2022/06/22 00:24:43;;;;;;;6.00;3.07;;;;;;;13.65;95.65;100455.94;689854;28;4276;-79
2022/06/22 00:25:21;;;;;;;6.32;2.97;;;;;;;13.55;96.84;100460.50;695942;28;1488;-79
2022/06/22 00:25:42;;;;;;;4.68;2.92;;;;;;;13.52;96.51;100452.72;697309;28;1385;-79
2022/06/22 00:26:25;;;;;;;5.50;3.10;;;;;;;13.51;96.56;100455.38;695399;28;1431;-79
2022/06/22 00:26:48;;;;;;;5.50;3.10;;;;;;;13.54;96.29;100465.81;696385;28;1330;-78
2022/06/22 00:27:19;;;;;;;5.03;3.15;;;;;;;13.57;95.79;100456.13;698265;28;1543;-79
2022/06/22 00:27:40;;;;;;;5.93;3.15;;;;;;;13.61;95.35;100449.91;698095;28;4265;-79
2022/06/22 00:28:36;;;;;;;5.18;3.00;;;;;;;13.57;97.61;100457.88;701083;28;1949;-78
2022/06/22 00:29:04;;;;;;;4.75;3.03;;;;;;;13.56;95.79;100454.38;698833;28;1249;-78
2022/06/22 00:29:34;;;;;;;4.88;3.20;;;;;;;13.54;95.81;100466.69;692226;28;1480;-79
2022/06/22 00:30:09;;;;;;;4.65;2.90;;;;;;;13.46;96.31;100458.09;698041;28;1447;-79
2022/06/22 00:30:31;;;;;;;5.50;3.10;;;;;;;13.33;97.31;100461.81;698548;28;1655;-78
2022/06/22 00:31:00;;;;;;;4.25;2.70;;;;;;;13.31;96.19;100458.38;698320;28;4287;-79
2022/06/22 00:31:40;;;;;;;5.82;2.90;;;;;;;13.33;96.64;100452.16;702133;28;1285;-79
2022/06/22 00:32:27;;;;;;;5.63;3.00;;;;;;;13.38;98.25;100450.34;703833;28;1291;-78
2022/06/22 00:33:00;;;;;;;4.38;3.00;;;;;;;13.39;97.89;100459.13;693041;28;1692;-79
2022/06/22 00:33:22;;;;;;;6.68;3.08;;;;;;;13.50;96.80;100454.50;702922;28;1448;-78
2022/06/22 00:34:01;;;;;;;5.93;2.95;;;;;;;13.45;97.63;100456.34;699419;28;4258;-79
2022/06/22 00:34:24;;;;;;;6.03;2.90;;;;;;;13.40;97.13;100458.19;699760;28;1195;-78
2022/06/22 00:34:45;;;;;;;4.70;2.80;;;;;;;13.48;96.97;100456.28;701411;28;1257;-79
2022/06/22 00:35:42;;;;;;;4.30;2.83;;;;;;;13.43;97.65;100463.38;704070;28;1261;-79
2022/06/22 00:36:28;;;;;;;4.95;2.80;;;;;;;13.32;97.02;100457.44;699936;28;1305;-79
2022/06/22 00:37:00;;;;;;;5.55;2.80;;;;;;;13.25;97.08;100465.47;696777;28;4351;-79
2022/06/22 00:37:29;;;;;;;7.07;3.10;;;;;;;13.36;96.20;100472.28;695807;28;1676;-79
2022/06/22 00:37:53;;;;;;;5.53;2.92;;;;;;;13.35;96.04;100470.53;693338;28;1348;-79
2022/06/22 00:38:33;;;;;;;5.00;3.03;;;;;;;13.38;96.61;100481.00;689240;28;1619;-79
2022/06/22 00:38:54;;;;;;;4.53;2.90;;;;;;;13.29;97.82;100472.38;689926;28;1441;-79
2022/06/22 00:39:18;;;;;;;5.55;3.10;;;;;;;13.21;97.31;100479.53;695400;28;1492;-79
2022/06/22 00:39:54;;;;;;;5.53;3.58;;;;;;;13.23;97.56;100482.13;698152;28;4248;-79
2022/06/22 00:40:16;;;;;;;6.63;3.15;;;;;;;13.26;97.21;100476.81;698514;28;1972;-79
2022/06/22 00:40:38;;;;;;;5.20;3.20;;;;;;;13.23;98.05;100469.84;699100;28;1206;-78
2022/06/22 00:41:03;;;;;;;4.63;3.20;;;;;;;13.16;98.69;100477.88;696968;28;1263;-78
2022/06/22 00:41:25;;;;;;;4.82;2.95;;;;;;;13.09;99.61;100474.50;698633;28;1333;-79
2022/06/22 00:41:53;;;;;;;5.95;3.15;;;;;;;13.08;99.26;100483.25;696416;28;1174;-79
2022/06/22 00:42:30;;;;;;;6.07;3.40;;;;;;;13.05;99.76;100480.69;695697;28;1763;-78
2022/06/22 00:42:53;;;;;;;4.80;3.30;;;;;;;12.94;100.00;100481.78;694768;28;4247;-79
2022/06/22 00:43:16;;;;;;;5.22;3.05;;;;;;;12.89;100.00;100472.22;695220;28;1472;-79
2022/06/22 00:43:37;;;;;;;6.13;3.25;;;;;;;12.91;99.06;100481.81;695971;28;1868;-78
2022/06/22 00:44:04;;;;;;;5.73;3.30;;;;;;;12.98;98.92;100481.72;696327;28;1576;-79
2022/06/22 00:44:29;;;;;;;6.28;3.10;;;;;;;13.03;98.89;100485.09;695271;28;1358;-78
2022/06/22 00:45:27;;;;;;;5.55;2.92;;;;;;;13.04;100.00;100471.97;698218;28;1770;-79
2022/06/22 00:45:49;;;;;;;4.95;3.03;;;;;;;13.01;100.00;100476.41;692062;28;4304;-78
2022/06/22 00:46:28;;;;;;;4.68;2.95;;;;;;;12.99;100.00;100467.69;689833;28;1713;-79
2022/06/22 00:46:59;;;;;;;4.97;3.22;;;;;;;12.91;100.00;100470.44;689338;28;1433;-79
2022/06/22 00:47:19;;;;;;;5.45;3.05;;;;;;;12.80;100.00;100468.00;690627;28;1805;-79
2022/06/22 00:47:58;;;;;;;5.50;3.20;;;;;;;12.71;100.00;100462.91;688233;28;1452;-78
2022/06/22 00:48:27;;;;;;;5.50;3.17;;;;;;;12.76;100.00;100461.09;691501;28;1422;-78
2022/06/22 00:48:52;;;;;;;6.78;3.42;;;;;;;12.77;100.00;100468.06;694564;28;4250;-79
2022/06/22 00:49:18;;;;;;;4.95;3.28;;;;;;;12.75;100.00;100459.34;693517;28;1875;-79
2022/06/22 00:49:43;;;;;;;5.53;3.22;;;;;;;12.73;100.00;100461.16;695465;28;1481;-78
2022/06/22 00:50:13;;;;;;;7.03;3.13;;;;;;;12.71;100.00;100460.28;692357;28;1094;-78
2022/06/22 00:50:41;;;;;;;5.60;3.92;;;;;;;12.66;100.00;100459.53;692309;28;1468;-78
2022/06/22 00:51:08;;;;;;;6.03;3.42;;;;;;;12.58;100.00;100467.50;689832;28;1922;-78
2022/06/22 00:51:36;;;;;;;6.05;3.45;;;;;;;12.50;100.00;100465.03;689435;28;1381;-78
2022/06/22 00:52:05;;;;;;;5.45;3.30;;;;;;;12.47;100.00;100472.06;695569;28;4907;-79
2022/06/22 00:52:37;;;;;;;4.70;3.28;;;;;;;12.57;100.00;100456.16;696628;28;1304;-79
2022/06/22 00:53:11;;;;;;;6.10;3.25;;;;;;;12.64;100.00;100456.03;700718;28;1336;-79
2022/06/22 00:53:34;;;;;;;6.20;3.22;;;;;;;12.68;100.00;100453.38;704153;28;1575;-78
2022/06/22 00:54:00;;;;;;;6.40;3.17;;;;;;;12.70;100.00;100458.56;702240;28;1897;-78
2022/06/22 00:54:28;;;;;;;6.25;3.42;;;;;;;12.76;100.00;100448.81;698998;28;1263;-78
2022/06/22 00:54:48;;;;;;;4.50;3.00;;;;;;;12.82;100.00;100445.25;695611;28;4255;-78
2022/06/22 00:55:38;;;;;;;4.32;3.00;;;;;;;12.84;100.00;100443.47;694154;28;1435;-78
2022/06/22 00:56:16;;;;;;;5.32;3.20;;;;;;;12.86;100.00;100446.94;691192;28;1656;-78
2022/06/22 00:56:39;;;;;;;5.55;3.25;;;;;;;12.93;100.00;100443.31;695616;28;1387;-78
2022/06/22 00:57:04;;;;;;;5.30;3.20;;;;;;;12.95;100.00;100443.28;693481;28;1824;-78
2022/06/22 00:57:31;;;;;;;4.85;2.90;;;;;;;12.92;100.00;100446.81;698420;28;1619;-78
2022/06/22 00:58:01;;;;;;;5.72;3.53;;;;;;;12.92;100.00;100441.56;700458;28;4304;-79
2022/06/22 00:58:36;;;;;;;5.10;3.35;;;;;;;13.02;100.00;100447.50;694516;28;1424;-78
2022/06/22 00:59:21;;;;;;;5.82;3.08;;;;;;;13.01;100.00;100434.41;697513;28;1856;-79
2022/06/22 01:00:14;;;;;;;5.78;3.42;;;;;;;13.08;100.00;100436.03;692283;28;1860;-78
2022/06/22 01:00:39;;;;;;;5.97;3.10;;;;;;;13.11;100.00;100435.97;695083;28;4396;-78
2022/06/22 01:01:26;;;;;;;6.00;3.13;;;;;;;13.05;100.00;100426.44;703452;28;1586;-80
2022/06/22 01:01:57;;;;;;;5.45;3.40;;;;;;;13.05;100.00;100423.81;701158;28;1581;-80
2022/06/22 01:02:43;;;;;;;6.00;3.30;;;;;;;13.15;99.96;100423.66;701159;28;1362;-80
2022/06/22 01:03:17;;;;;;;5.00;3.20;;;;;;;12.97;100.00;100417.84;698824;28;1935;-79
2022/06/22 01:03:45;;;;;;;6.32;3.35;;;;;;;12.93;100.00;100422.31;697434;28;4303;-79
2022/06/22 01:04:42;;;;;;;4.53;3.00;;;;;;;12.94;100.00;100421.44;701521;28;1771;-79
2022/06/22 01:05:20;;;;;;;5.72;3.33;;;;;;;12.97;100.00;100423.09;700745;28;950;-79
2022/06/22 01:05:50;;;;;;;5.35;3.10;;;;;;;13.02;100.00;100425.66;700954;28;1345;-80
2022/06/22 01:06:25;;;;;;;5.85;3.20;;;;;;;13.00;100.00;100427.44;695284;28;1266;-78
2022/06/22 01:06:52;;;;;;;5.43;3.20;;;;;;;12.98;100.00;100424.00;693969;28;4309;-77
2022/06/22 01:07:33;;;;;;;5.15;3.15;;;;;;;12.90;100.00;100430.25;693432;28;1342;-78
2022/06/22 01:08:14;;;;;;;5.30;3.40;;;;;;;12.90;100.00;100438.13;695441;28;1391;-78
2022/06/22 01:08:56;;;;;;;5.50;3.17;;;;;;;12.92;100.00;100438.94;698500;28;1449;-77
2022/06/22 01:09:29;;;;;;;5.78;3.50;;;;;;;12.90;100.00;100439.84;704099;28;1411;-79
2022/06/22 01:10:04;;;;;;;5.90;3.35;;;;;;;12.91;100.00;100438.97;699491;28;4310;-79
2022/06/22 01:10:43;;;;;;;5.95;3.55;;;;;;;12.81;100.00;100437.38;697823;28;1333;-78
2022/06/22 01:12:45;;;;;;;5.80;3.60;;;;;;;12.57;100.00;100440.44;701647;28;1408;-79
2022/06/22 01:13:33;;;;;;;5.30;3.10;;;;;;;12.52;100.00;100437.00;704000;27;4889;-79
2022/06/22 01:13:57;;;;;;;6.07;3.60;;;;;;;12.50;100.00;100440.53;697584;28;2171;-78
2022/06/22 01:14:46;;;;;;;6.32;3.50;;;;;;;12.47;100.00;100427.47;698392;28;1919;-79
2022/06/22 01:15:30;;;;;;;5.07;3.13;;;;;;;12.45;100.00;100445.88;689946;28;1221;-79
2022/06/22 01:16:02;;;;;;;6.30;3.42;;;;;;;12.37;100.00;100445.13;691527;28;4398;-78
2022/06/22 01:16:30;;;;;;;5.85;3.38;;;;;;;12.34;100.00;100443.41;697040;28;1358;-79
2022/06/22 01:16:55;;;;;;;6.00;3.38;;;;;;;12.38;100.00;100447.72;698717;28;1572;-78
2022/06/22 01:17:30;;;;;;;5.30;3.20;;;;;;;12.42;100.00;100448.53;696248;28;1547;-78
2022/06/22 01:18:25;;;;;;;4.57;3.05;;;;;;;12.54;100.00;100445.69;698284;28;1888;-79
2022/06/22 01:18:59;;;;;;;5.53;3.50;;;;;;;12.55;100.00;100446.59;700968;28;4292;-78
2022/06/22 01:19:37;;;;;;;5.68;3.58;;;;;;;12.61;100.00;100446.47;698689;28;1344;-79
2022/06/22 01:20:09;;;;;;;6.95;3.47;;;;;;;12.63;100.00;100444.69;701309;28;1328;-79
2022/06/22 01:20:45;;;;;;;5.40;3.15;;;;;;;12.61;100.00;100446.47;700632;28;1554;-79
2022/06/22 01:21:21;;;;;;;5.40;3.47;;;;;;;12.53;100.00;100444.00;696879;28;2041;-79
2022/06/22 01:21:46;;;;;;;4.85;3.10;;;;;;;12.55;100.00;100444.81;696825;28;4252;-78
2022/06/22 01:22:36;;;;;;;5.05;3.28;;;;;;;12.55;100.00;100441.34;695472;28;1416;-79
2022/06/22 01:23:19;;;;;;;4.93;3.30;;;;;;;12.53;100.00;100435.25;699710;28;1251;-79
2022/06/22 01:23:45;;;;;;;5.45;3.60;;;;;;;12.47;100.00;100440.59;700516;28;4790;-78
2022/06/22 01:24:32;;;;;;;5.72;3.38;;;;;;;12.51;100.00;100444.91;698278;28;1688;-79
2022/06/22 01:25:23;;;;;;;5.25;3.20;;;;;;;12.56;100.00;100440.44;695532;28;4243;-79
2022/06/22 01:25:55;;;;;;;5.70;3.50;;;;;;;12.52;100.00;100437.00;698709;28;2182;-79
2022/06/22 01:26:24;;;;;;;5.60;3.35;;;;;;;12.71;100.00;100431.44;698750;28;1701;-78
2022/06/22 01:27:10;;;;;;;5.50;3.55;;;;;;;12.71;100.00;100428.81;696464;28;1357;-79
2022/06/22 01:27:35;;;;;;;6.03;3.42;;;;;;;12.73;100.00;100448.03;694342;28;1283;-79
2022/06/22 01:27:55;;;;;;;4.80;3.13;;;;;;;12.73;100.00;100462.00;691195;28;5958;-79
2022/06/22 01:28:17;;;;;;;5.57;3.13;;;;;;;12.70;100.00;100443.69;692783;28;1573;-80
2022/06/22 01:28:37;;;;;;;5.53;3.20;;;;;;;12.63;100.00;100444.69;695198;28;1440;-79
2022/06/22 01:29:07;;;;;;;5.90;3.37;;;;;;;12.55;100.00;100434.31;696018;28;1943;-79
2022/06/22 01:29:27;;;;;;;5.50;3.45;;;;;;;12.54;100.00;100437.81;696181;28;1561;-78
2022/06/22 01:29:54;;;;;;;5.57;3.50;;;;;;;12.52;100.00;100446.63;692533;28;1298;-78
2022/06/22 01:30:28;;;;;;;4.57;3.20;;;;;;;12.47;100.00;100474.69;695076;28;1663;-79
2022/06/22 01:30:53;;;;;;;5.70;3.30;;;;;;;12.38;100.00;100447.72;694616;28;4335;-79
2022/06/22 01:31:14;;;;;;;6.32;3.30;;;;;;;12.38;100.00;100449.47;695495;28;1541;-79
2022/06/22 01:31:35;;;;;;;5.40;3.33;;;;;;;12.39;100.00;100469.53;697919;28;1447;-78
2022/06/22 01:32:13;;;;;;;4.78;3.30;;;;;;;12.29;100.00;100454.84;701600;28;2021;-78
2022/06/22 01:32:35;;;;;;;6.18;3.58;;;;;;;12.20;100.00;100445.38;696788;28;1556;-79
2022/06/22 01:32:57;;;;;;;6.57;3.70;;;;;;;12.19;100.00;100452.38;695900;28;1761;-79
2022/06/22 01:33:25;;;;;;;5.90;3.55;;;;;;;12.16;100.00;100441.06;693627;28;1626;-78
2022/06/22 01:33:49;;;;;;;6.05;3.60;;;;;;;12.06;100.00;100443.81;692439;28;4302;-78
2022/06/22 01:34:16;;;;;;;5.07;3.35;;;;;;;11.97;100.00;100441.31;695528;28;1663;-79
2022/06/22 01:34:43;;;;;;;5.20;3.22;;;;;;;11.91;100.00;100438.78;695446;28;1818;-78
2022/06/22 01:35:16;;;;;;;6.10;3.50;;;;;;;11.88;100.00;100438.78;695042;28;1635;-78
2022/06/22 01:35:42;;;;;;;4.80;3.40;;;;;;;11.93;100.00;100432.63;697641;28;1812;-78
2022/06/22 01:36:23;;;;;;;5.82;3.53;;;;;;;11.91;100.00;100429.16;696650;28;1369;-78
2022/06/22 01:36:44;;;;;;;5.78;3.88;;;;;;;11.84;100.00;100427.50;694549;28;4292;-78
2022/06/22 01:37:12;;;;;;;6.22;3.78;;;;;;;11.80;100.00;100423.19;693054;28;1460;-78
2022/06/22 01:37:33;;;;;;;5.00;3.45;;;;;;;11.82;100.00;100426.66;693899;28;1318;-78
2022/06/22 01:37:53;;;;;;;5.93;3.60;;;;;;;11.89;100.00;100430.06;693168;28;1309;-78
2022/06/22 01:38:23;;;;;;;5.47;3.50;;;;;;;11.95;100.00;100413.41;692804;28;1289;-78
2022/06/22 01:38:43;;;;;;;5.07;3.58;;;;;;;12.01;100.00;100419.44;695186;28;1263;-78
2022/06/22 01:39:05;;;;;;;5.97;3.53;;;;;;;12.09;100.00;100421.97;697863;28;1229;-78
2022/06/22 01:39:26;;;;;;;5.43;3.58;;;;;;;12.13;100.00;100421.03;695728;28;1243;-79
2022/06/22 01:39:47;;;;;;;5.77;3.30;;;;;;;12.19;100.00;100441.88;694442;28;4381;-78
2022/06/22 01:40:33;;;;;;;6.22;3.33;;;;;;;12.26;100.00;100408.59;694119;28;1892;-78
2022/06/22 01:41:03;;;;;;;5.93;3.60;;;;;;;12.33;100.00;100409.38;694150;28;1207;-78
2022/06/22 01:41:27;;;;;;;5.00;3.30;;;;;;;12.33;100.00;100409.38;694133;28;1255;-78
2022/06/22 01:42:02;;;;;;;4.72;3.08;;;;;;;12.37;100.00;100403.19;695356;28;1470;-78
2022/06/22 01:42:32;;;;;;;4.80;3.30;;;;;;;12.38;100.00;100404.91;695324;28;1245;-78
2022/06/22 01:43:01;;;;;;;4.90;3.30;;;;;;;12.37;100.00;100403.19;694362;28;4284;-79
2022/06/22 01:43:31;;;;;;;4.97;3.22;;;;;;;12.40;100.00;100401.34;690653;28;1652;-78
2022/06/22 01:44:09;;;;;;;5.32;3.35;;;;;;;12.41;100.00;100402.25;698284;28;1838;-78
2022/06/22 01:44:50;;;;;;;5.15;3.55;;;;;;;12.35;100.00;100408.44;698457;28;1560;-78
2022/06/22 01:45:43;;;;;;;5.70;3.40;;;;;;;12.33;100.00;100402.34;702955;27;1337;-78
2022/06/22 01:46:15;;;;;;;6.00;3.50;;;;;;;12.50;100.00;100396.84;685452;28;4858;-78
2022/06/22 01:46:50;;;;;;;5.47;3.20;;;;;;;12.55;100.00;100400.22;684044;28;1962;-78
2022/06/22 01:47:55;;;;;;;5.50;3.30;;;;;;;12.43;100.00;100396.09;678317;29;1470;-78
2022/06/22 01:48:22;;;;;;;5.15;3.05;;;;;;;12.40;100.00;100408.38;683693;28;1620;-78
2022/06/22 01:49:03;;;;;;;5.50;3.05;;;;;;;12.43;100.00;100397.81;686442;28;4328;-78
2022/06/22 01:49:40;;;;;;;5.43;3.33;;;;;;;12.41;100.00;100397.00;689821;28;1096;-78
2022/06/22 01:50:19;;;;;;;5.20;3.60;;;;;;;12.42;100.00;100402.22;690234;28;1394;-79
2022/06/22 01:50:58;;;;;;;5.65;3.30;;;;;;;12.38;100.00;100399.69;692172;28;1824;-79
2022/06/22 01:52:16;;;;;;;4.60;3.30;;;;;;;12.24;100.00;100400.75;697627;28;1846;-78
2022/06/22 01:52:57;;;;;;;5.57;3.40;;;;;;;12.24;100.00;100400.75;691093;28;4707;-78
2022/06/22 01:53:32;;;;;;;5.65;3.28;;;;;;;12.32;100.00;100407.63;691270;28;1684;-78
2022/06/22 01:54:00;;;;;;;5.43;3.20;;;;;;;12.24;100.00;100400.75;687062;28;900;-78
2022/06/22 01:54:34;;;;;;;6.10;3.10;;;;;;;12.26;100.00;100404.19;689667;28;1455;-78
2022/06/22 01:55:00;;;;;;;4.45;3.10;;;;;;;12.23;100.00;100416.50;687459;28;1522;-78
2022/06/22 01:55:58;;;;;;;5.40;3.30;;;;;;;12.21;100.00;100411.28;684083;28;1326;-78
2022/06/22 01:56:42;;;;;;;5.93;3.47;;;;;;;11.99;100.00;100404.63;685158;28;1828;-78
2022/06/22 01:57:24;;;;;;;4.75;3.25;;;;;;;12.01;100.00;100408.97;686923;28;1822;-78
2022/06/22 01:57:55;;;;;;;5.20;3.25;;;;;;;12.05;100.00;100415.03;688737;28;4405;-79
2022/06/22 01:58:18;;;;;;;6.05;3.53;;;;;;;11.97;100.00;100411.66;693323;28;1388;-79
2022/06/22 01:58:48;;;;;;;5.22;3.20;;;;;;;11.86;100.00;100415.25;698113;28;1514;-78
2022/06/22 01:59:24;;;;;;;5.80;3.45;;;;;;;11.84;100.00;100417.03;697441;28;1269;-78
2022/06/22 01:59:55;;;;;;;5.57;3.30;;;;;;;11.90;100.00;100427.41;697699;28;1467;-78
2022/06/22 02:00:19;;;;;;;6.47;3.42;;;;;;;11.96;100.00;100415.16;694737;28;1988;-78
2022/06/22 02:00:43;;;;;;;6.55;3.38;;;;;;;11.99;100.00;100420.34;695976;28;4366;-79
2022/06/22 02:01:28;;;;;;;5.45;3.40;;;;;;;11.95;100.00;100418.66;696228;28;1330;-78
2022/06/22 02:02:24;;;;;;;5.50;3.20;;;;;;;11.89;100.00;100419.56;695352;28;1388;-78
2022/06/22 02:02:56;;;;;;;6.20;3.50;;;;;;;11.87;100.00;100418.75;694353;28;2184;-78
2022/06/22 02:03:22;;;;;;;5.22;3.20;;;;;;;11.88;100.00;100413.50;697459;28;1424;-78
2022/06/22 02:03:58;;;;;;;5.70;3.40;;;;;;;11.76;100.00;100424.97;699885;28;4243;-78
2022/06/22 02:04:23;;;;;;;7.43;3.42;;;;;;;11.65;100.00;100419.03;702471;28;1867;-78
2022/06/22 02:04:50;;;;;;;6.38;3.50;;;;;;;11.70;100.00;100445.16;700000;28;1377;-78
2022/06/22 02:05:16;;;;;;;5.32;3.28;;;;;;;11.75;100.00;100411.91;700203;28;1360;-79
2022/06/22 02:05:57;;;;;;;4.65;2.92;;;;;;;11.79;100.00;100415.38;692230;28;2018;-79
2022/06/22 02:08:10;;;;;;;5.55;3.30;;;;;;;11.82;100.00;100413.56;701332;28;1906;-78
2022/06/22 02:08:36;;;;;;;5.22;3.40;;;;;;;11.68;100.00;100424.22;698886;28;1447;-78
2022/06/22 02:09:04;;;;;;;5.70;3.33;;;;;;;11.59;100.00;100411.28;697219;28;1747;-78
2022/06/22 02:09:32;;;;;;;5.80;3.63;;;;;;;11.58;100.00;100415.63;693200;28;2158;-78
2022/06/22 02:10:16;;;;;;;5.72;3.20;;;;;;;11.64;100.00;100419.06;689363;28;4279;-78
2022/06/22 02:11:01;;;;;;;4.95;3.20;;;;;;;11.65;100.00;100415.56;696559;28;1594;-78
2022/06/22 02:11:27;;;;;;;5.38;3.42;;;;;;;11.60;100.00;100418.22;697810;28;1385;-78
2022/06/22 02:12:40;;;;;;;5.47;3.20;;;;;;;11.61;100.00;100422.56;696705;28;1212;-78
2022/06/22 02:13:33;;;;;;;6.28;3.40;;;;;;;11.64;100.00;100419.06;695984;28;4935;-79
2022/06/22 02:14:08;;;;;;;5.53;3.22;;;;;;;11.59;100.00;100425.22;699257;28;1336;-78
2022/06/22 02:14:33;;;;;;;5.40;3.42;;;;;;;11.56;100.00;100416.53;694543;28;1629;-78
2022/06/22 02:15:02;;;;;;;5.35;3.50;;;;;;;11.51;100.00;100431.44;694424;28;1490;-78
2022/06/22 02:15:29;;;;;;;4.80;3.30;;;;;;;11.51;100.00;100418.34;695996;28;1509;-78
2022/06/22 02:15:52;;;;;;;5.13;3.10;;;;;;;11.53;100.00;100420.06;691280;28;4299;-78
2022/06/22 02:16:25;;;;;;;5.00;3.20;;;;;;;11.61;100.00;100422.56;692575;28;900;-78
2022/06/22 02:16:53;;;;;;;8.60;3.50;;;;;;;11.63;100.00;100428.66;696660;28;1026;-78
2022/06/22 02:17:19;;;;;;;5.38;3.38;;;;;;;11.73;100.00;100429.41;693408;28;1322;-79
2022/06/22 02:17:43;;;;;;;5.30;3.22;;;;;;;11.70;100.00;100432.94;695613;28;1715;-78
2022/06/22 02:18:14;;;;;;;6.03;3.40;;;;;;;11.62;100.00;100431.31;690183;28;1346;-78
2022/06/22 02:18:40;;;;;;;5.38;3.33;;;;;;;11.60;100.00;100433.91;696317;28;4327;-78
2022/06/22 02:19:00;;;;;;;4.80;3.33;;;;;;;11.57;100.00;100432.25;697967;28;1697;-77
2022/06/22 02:19:21;;;;;;;4.90;3.13;;;;;;;11.59;100.00;100432.22;692998;28;1156;-78
2022/06/22 02:19:42;;;;;;;5.38;3.30;;;;;;;11.63;100.00;100438.25;693485;28;1637;-78
2022/06/22 02:20:14;;;;;;;5.57;3.43;;;;;;;11.63;100.00;100436.53;693299;28;1596;-78
2022/06/22 02:20:37;;;;;;;5.68;3.42;;;;;;;11.54;100.00;100441.88;686287;28;1730;-78
2022/06/22 02:21:15;;;;;;;5.38;3.50;;;;;;;11.47;100.00;100446.31;690475;28;1365;-78
2022/06/22 02:21:49;;;;;;;5.45;3.40;;;;;;;11.44;100.00;100440.22;697169;28;4327;-78
2022/06/22 02:22:13;;;;;;;5.47;3.22;;;;;;;11.48;100.00;100449.78;695991;28;1049;-78
2022/06/22 02:22:34;;;;;;;5.60;3.35;;;;;;;11.44;100.00;100446.34;695978;28;1230;-78
2022/06/22 02:23:00;;;;;;;5.78;3.78;;;;;;;11.44;100.00;100443.72;691737;28;1286;-78
2022/06/22 02:23:24;;;;;;;6.80;3.42;;;;;;;11.40;100.00;100449.88;690991;28;1263;-78
2022/06/22 02:23:49;;;;;;;5.63;3.30;;;;;;;11.37;100.00;100447.31;693464;28;5042;-78
2022/06/22 02:24:19;;;;;;;4.93;3.50;;;;;;;11.36;100.00;100445.56;693623;28;1450;-78
2022/06/22 02:24:45;;;;;;;6.18;3.58;;;;;;;11.36;100.00;100445.56;692988;28;4338;-79
2022/06/22 02:25:07;;;;;;;5.93;3.85;;;;;;;11.34;100.00;100448.22;695902;28;1652;-78
2022/06/22 02:25:33;;;;;;;5.95;3.65;;;;;;;11.29;100.00;100444.78;692829;28;1539;-78
2022/06/22 02:26:29;;;;;;;5.32;3.63;;;;;;;11.29;100.00;100443.91;695073;28;1776;-78
2022/06/22 02:26:56;;;;;;;6.65;3.60;;;;;;;11.28;100.00;100443.03;696615;28;1618;-79
2022/06/22 02:27:19;;;;;;;5.53;3.45;;;;;;;11.22;100.00;100436.13;695968;28;1366;-79
2022/06/22 02:27:40;;;;;;;5.53;3.47;;;;;;;11.27;100.00;100449.16;695642;28;4357;-79
2022/06/22 02:28:01;;;;;;;6.28;3.60;;;;;;;11.29;100.00;100436.06;694335;28;1875;-79
2022/06/22 02:28:22;;;;;;;6.40;3.80;;;;;;;11.34;100.00;100437.75;693224;28;1435;-79
2022/06/22 02:28:43;;;;;;;5.00;3.38;;;;;;;11.37;100.00;100437.69;696997;28;1164;-79
2022/06/22 02:29:04;;;;;;;5.50;3.53;;;;;;;11.32;100.00;100434.25;693329;28;1261;-79
2022/06/22 02:29:30;;;;;;;5.20;3.78;;;;;;;11.25;100.00;100435.22;694435;28;1258;-79
2022/06/22 02:29:53;;;;;;;5.53;3.65;;;;;;;11.17;100.00;100427.47;695611;28;1590;-79
2022/06/22 02:30:14;;;;;;;7.03;3.53;;;;;;;11.21;100.00;100429.13;694324;28;1287;-80
2022/06/22 02:30:35;;;;;;;5.70;3.63;;;;;;;11.25;100.00;100436.06;689830;28;1513;-79